aviador You're here:

PAOU Decoded Metar

NELSON LAGOON in AK, USA
Report Time2018-06-24 21:56:00
UTC Time2018-06-24 22:43:45
Flight Rules mvfr MVFR
Wind130° at 15 kt
W.Decomp.*RWY 08: 12.3 kt HW 8.6 kt RCW
W.Rank130° ranks 1
Current wind is above 130° avg. (14.2)
Visibility9999 m
Phenomena:N/A
Clouds:Overcast 026 Hf
Expected CloudBase > 1,600 ft AGL from Temp-Dew spread
Ceiling2,600 ft
Temp11°C (ISA -4)
Dew Point07°C (77% RH)
AAT4.9°C
QNH1017 hPa
Density Alt-463 ft
Elevation13 ft
Report Wrong Elevation
Raw Report
PAOU 242156Z AUTO 13015KT 10SM OVC026 11/07 A3003 RMK AO2 SLP170
T01060072=

Extra information for PAOU:More info

Metar Taf Metar & Taf Last 4 Metars F.Rules Stats Wind Profile Meteogram Temp Stats Airport Information Weather charts Add Link Nearby VenuesMetar ALERT Operation Metar Decoded Social comments

AIRNAV info for PAOU